»·PEaware :: DAL604 KSBA-KSNA

DAL604 :: KSBA-KSNA

FLIGHT INFORMATION

Flight Status: Arrived
Operator:
Delta Air Lines
More flights by this operator :: More flights under this callsign
Pilot: Ricardo M. (29263)
Aircraft: BOEING 737-300
(B733)
More flights by this aircraft type
Origin: KSBA Santa Barbara Mun
United States
Destination: KSNA John Wayne-Orange Co
United States
More flights between these airports :: More routes between these airports
Route: KWANG VTU V208 SXC SLI
File this flight plan on PilotEdge
Remarks: SBAP8
Altitude:
(Current/Filed)
11,000ft
Speed:
(Current/Filed)
250kts
Departed: 25-Oct-20 01:26 PM
Arrived: 25-Oct-20 01:59 PM
Distance/Time
Traveled:
108nm/0:32
Distance/Time
To Go:
Arrived

Flight Plot

Page will automatically refresh every two minutes.


Map Options




Map Legend


Flown Route
Filed Route
Departure Airport
Arrival Airport
Navaid (VOR, NDB)
Fix

Horizontal Profiles

Position Reports

Time Latitude Longitude Heading Altitude Ground
Speed
25-Oct-20 13:00 34.424872 -119.837215 114 15ft 0kts
25-Oct-20 13:00 34.424872 -119.837215 114 15ft 0kts
25-Oct-20 13:02 34.424872 -119.837215 114 15ft 0kts
25-Oct-20 13:02 34.424872 -119.837215 114 15ft 0kts
25-Oct-20 13:03 34.424872 -119.837215 114 15ft 0kts
25-Oct-20 13:04 34.424872 -119.837215 114 15ft 0kts
25-Oct-20 13:05 34.424872 -119.837215 114 15ft 0kts
25-Oct-20 13:06 34.424872 -119.837215 114 15ft 0kts
25-Oct-20 13:07 34.424872 -119.837215 114 15ft 0kts
25-Oct-20 13:08 34.424872 -119.837215 114 15ft 0kts
25-Oct-20 13:09 34.424872 -119.837215 114 15ft 0kts
25-Oct-20 13:10 34.424872 -119.837215 114 15ft 0kts
25-Oct-20 13:11 34.424872 -119.837215 114 15ft 0kts
25-Oct-20 13:12 34.424872 -119.837215 114 15ft 0kts
25-Oct-20 13:13 34.424872 -119.837215 114 15ft 0kts
25-Oct-20 13:14 34.424872 -119.837215 114 15ft 0kts
25-Oct-20 13:15 34.424872 -119.837215 114 15ft 0kts
25-Oct-20 13:16 34.424872 -119.837215 114 15ft 0kts
25-Oct-20 13:17 34.424872 -119.837215 114 15ft 0kts
25-Oct-20 13:18 34.424942 -119.837406 114 15ft 0kts
25-Oct-20 13:19 34.425118 -119.837868 108 15ft 0kts
25-Oct-20 13:20 34.425200 -119.837820 357 15ft 1kts
25-Oct-20 13:21 34.426187 -119.838144 348 16ft 4kts
25-Oct-20 13:22 34.426705 -119.837263 85 16ft 7kts
25-Oct-20 13:23 34.426977 -119.835333 0 15ft 0kts
25-Oct-20 13:24 34.427038 -119.835327 5 15ft 1kts
25-Oct-20 13:25 34.427845 -119.837734 268 17ft 60kts
25-Oct-20 13:26 34.423448 -119.888628 261 2589ft 193kts
25-Oct-20 13:27 34.414866 -119.959525 261 3014ft 218kts
25-Oct-20 13:28 34.364446 -119.978955 151 4259ft 261kts
25-Oct-20 13:29 34.306681 -119.930163 124 8977ft 269kts
25-Oct-20 13:30 34.265755 -119.844976 122 11034ft 335kts
25-Oct-20 13:31 34.219100 -119.748001 122 11026ft 336kts
25-Oct-20 13:32 34.172455 -119.649678 114 11019ft 338kts
25-Oct-20 13:33 34.148250 -119.540485 118 11039ft 338kts
25-Oct-20 13:34 34.102632 -119.441095 125 11036ft 336kts
25-Oct-20 13:35 34.044232 -119.353104 132 11036ft 334kts
25-Oct-20 13:36 33.983544 -119.267433 133 11041ft 334kts
25-Oct-20 13:37 33.923125 -119.182350 133 11044ft 334kts
25-Oct-20 13:38 33.861843 -119.097220 132 11044ft 334kts
25-Oct-20 13:39 33.800629 -119.011120 132 11044ft 333kts
25-Oct-20 13:40 33.739602 -118.925787 132 11037ft 333kts
25-Oct-20 13:41 33.678260 -118.840187 132 11036ft 333kts
25-Oct-20 13:42 33.616286 -118.753910 132 11041ft 334kts
25-Oct-20 13:43 33.554508 -118.668118 132 11045ft 334kts
25-Oct-20 13:44 33.526002 -118.567869 72 10789ft 327kts
25-Oct-20 13:45 33.553928 -118.466423 71 9261ft 308kts
25-Oct-20 13:46 33.579868 -118.371627 71 7794ft 294kts
25-Oct-20 13:47 33.604703 -118.279155 72 6192ft 287kts
25-Oct-20 13:48 33.628967 -118.189266 72 4999ft 281kts
25-Oct-20 13:49 33.653575 -118.100117 72 5020ft 281kts
25-Oct-20 13:50 33.675958 -118.020503 72 4946ft 226kts
25-Oct-20 13:51 33.695898 -117.949480 70 3920ft 222kts
25-Oct-20 13:52 33.723004 -117.885969 49 2991ft 200kts
25-Oct-20 13:53 33.766871 -117.850086 31 3029ft 185kts
25-Oct-20 13:54 33.785592 -117.806385 142 2519ft 167kts
25-Oct-20 13:55 33.750701 -117.822643 221 1733ft 131kts
25-Oct-20 13:56 33.716766 -117.842654 208 1017ft 131kts
25-Oct-20 13:57 33.684410 -117.863234 210 144ft 123kts
25-Oct-20 13:58 33.669968 -117.872202 169 63ft 9kts
25-Oct-20 13:59 33.669471 -117.870571 43 63ft 9kts
25-Oct-20 14:00 33.672784 -117.867662 37 63ft 13kts
25-Oct-20 14:01 33.675127 -117.865769 57 63ft 5kts
25-Oct-20 14:02 33.675017 -117.865008 117 63ft 0kts
25-Oct-20 14:03 33.675018 -117.865008 117 63ft 0kts
25-Oct-20 14:04 33.675018 -117.865008 117 63ft 0kts
25-Oct-20 14:05 33.675018 -117.865008 117 63ft 0kts

Navigation Log

Ident Type
Flight plan parsing failed, navigation log unavailable